createdAt,value
2022-10-20T00:00:23.596Z,85.40
2022-10-20T00:02:50.796Z,85.10
2022-10-20T00:05:18.047Z,84.80
2022-10-20T00:07:45.072Z,84.80
2022-10-20T00:10:12.122Z,84.80
2022-10-20T00:12:39.350Z,84.90
2022-10-20T00:15:06.777Z,85.00
2022-10-20T00:17:33.856Z,85.10
2022-10-20T00:20:00.799Z,85.00
2022-10-20T00:22:27.872Z,85.00
2022-10-20T00:24:54.872Z,85.20
2022-10-20T00:27:21.842Z,85.40
2022-10-20T00:29:49.608Z,85.00
2022-10-20T00:32:16.652Z,84.80
2022-10-20T00:34:43.615Z,84.90
2022-10-20T00:37:10.607Z,84.90
2022-10-20T00:39:37.729Z,84.80
2022-10-20T00:42:05.563Z,85.00
2022-10-20T00:44:51.242Z,85.30
2022-10-20T00:47:47.153Z,85.70
2022-10-20T00:50:21.920Z,85.70
2022-10-20T00:52:50.145Z,85.60
2022-10-20T00:55:25.382Z,85.50
2022-10-20T00:57:54.314Z,85.50
2022-10-20T01:00:21.430Z,85.50
2022-10-20T01:02:52.449Z,85.50
2022-10-20T01:05:20.024Z,85.40
2022-10-20T01:07:46.964Z,85.50
2022-10-20T01:10:14.726Z,85.70
2022-10-20T01:12:55.389Z,85.90
2022-10-20T01:15:44.710Z,85.50
2022-10-20T01:18:20.299Z,85.20
2022-10-20T01:20:50.053Z,85.20
2022-10-20T01:23:41.589Z,85.30
2022-10-20T01:26:29.337Z,85.40
2022-10-20T01:29:05.658Z,86.30
2022-10-20T01:31:50.402Z,87.50
2022-10-20T01:34:17.372Z,87.70
2022-10-20T01:37:28.162Z,88.00
2022-10-20T01:40:28.684Z,88.40
2022-10-20T01:42:59.725Z,88.20
2022-10-20T01:45:30.581Z,88.00
2022-10-20T01:48:01.678Z,87.50
2022-10-20T01:50:29.522Z,87.00
2022-10-20T01:53:00.389Z,86.70
2022-10-20T01:55:27.422Z,86.50
2022-10-20T01:58:12.499Z,86.80
2022-10-20T02:00:40.301Z,87.40
2022-10-20T02:03:26.155Z,87.70
2022-10-20T02:06:26.236Z,87.90
2022-10-20T02:09:03.509Z,88.20
2022-10-20T02:11:36.747Z,88.60
2022-10-20T02:14:05.892Z,88.80
2022-10-20T02:16:38.746Z,88.50
2022-10-20T02:19:09.228Z,88.40
2022-10-20T02:21:36.835Z,87.80
2022-10-20T02:24:09.079Z,87.70
2022-10-20T02:26:39.271Z,88.20
2022-10-20T02:29:25.397Z,88.60
2022-10-20T02:31:52.612Z,89.10
2022-10-20T02:34:19.601Z,89.30
2022-10-20T02:36:46.625Z,89.50
2022-10-20T02:39:13.616Z,89.60
2022-10-20T02:41:40.613Z,89.70
2022-10-20T02:44:07.533Z,89.70
2022-10-20T02:46:34.541Z,89.80
2022-10-20T02:49:01.549Z,90.00
2022-10-20T02:51:28.624Z,90.10
2022-10-20T02:53:55.603Z,90.30
2022-10-20T02:56:25.351Z,90.40
2022-10-20T02:58:54.649Z,90.50
2022-10-20T03:01:22.526Z,90.60
2022-10-20T03:03:49.674Z,90.70
2022-10-20T03:06:16.971Z,90.80
2022-10-20T03:08:44.537Z,90.80
2022-10-20T03:11:11.579Z,90.90
2022-10-20T03:13:38.492Z,91.00
2022-10-20T03:16:05.684Z,91.10
2022-10-20T03:18:32.635Z,91.20
2022-10-20T03:20:59.661Z,91.40
2022-10-20T03:23:26.643Z,91.50
2022-10-20T03:25:53.611Z,91.50
2022-10-20T03:28:20.577Z,91.70
2022-10-20T03:30:47.582Z,92.10
2022-10-20T03:33:14.599Z,91.90
2022-10-20T03:35:41.584Z,92.00
2022-10-20T03:38:08.603Z,92.10
2022-10-20T03:40:35.575Z,92.20
2022-10-20T03:43:02.570Z,92.40
2022-10-20T03:45:29.925Z,92.50
2022-10-20T03:47:57.165Z,92.50
2022-10-20T03:50:24.096Z,92.50
2022-10-20T03:52:51.308Z,92.40
2022-10-20T03:55:19.429Z,92.40
2022-10-20T03:57:46.431Z,92.70
2022-10-20T04:00:13.520Z,92.40
2022-10-20T04:02:43.723Z,92.40
2022-10-20T04:05:16.748Z,92.40
2022-10-20T04:07:43.929Z,92.30
2022-10-20T04:10:13.098Z,92.20
2022-10-20T04:12:40.608Z,92.20
2022-10-20T04:15:08.352Z,92.20
2022-10-20T04:17:36.920Z,92.20
2022-10-20T04:20:05.395Z,92.20
2022-10-20T04:22:32.410Z,92.30
2022-10-20T04:24:59.411Z,92.40
2022-10-20T04:27:26.388Z,92.40
2022-10-20T04:29:53.383Z,92.30
2022-10-20T04:32:20.432Z,92.30
2022-10-20T04:34:47.348Z,92.20
2022-10-20T04:37:14.324Z,92.30
2022-10-20T04:39:41.311Z,92.30
2022-10-20T04:42:08.314Z,92.30
2022-10-20T04:44:35.295Z,92.30
2022-10-20T04:47:02.240Z,92.40
2022-10-20T04:49:29.226Z,92.60
2022-10-20T04:52:00.620Z,92.70
2022-10-20T04:54:28.588Z,92.80
2022-10-20T04:56:56.019Z,92.80
2022-10-20T04:59:23.199Z,92.90
2022-10-20T05:01:50.372Z,92.90
2022-10-20T05:04:21.310Z,92.90
2022-10-20T05:06:49.411Z,93.00
2022-10-20T05:09:16.802Z,93.00
2022-10-20T05:11:44.012Z,93.10
2022-10-20T05:14:11.048Z,93.10
2022-10-20T05:16:38.151Z,93.10
2022-10-20T05:19:05.079Z,93.10
2022-10-20T05:21:32.316Z,93.20
2022-10-20T05:24:04.945Z,93.30
2022-10-20T05:26:36.591Z,93.40
2022-10-20T05:29:05.537Z,93.40
2022-10-20T05:31:36.109Z,93.50
2022-10-20T05:34:03.084Z,93.50
2022-10-20T05:36:30.119Z,93.60
2022-10-20T05:38:57.384Z,93.60
2022-10-20T05:41:29.803Z,93.60
2022-10-20T05:44:00.991Z,93.60
2022-10-20T05:46:31.909Z,93.60
2022-10-20T05:49:01.439Z,93.60
2022-10-20T05:51:35.405Z,93.60
2022-10-20T05:54:03.583Z,93.60
2022-10-20T05:56:31.599Z,93.60
2022-10-20T05:58:58.601Z,93.60
2022-10-20T06:01:40.118Z,93.60
2022-10-20T06:04:08.724Z,93.70
2022-10-20T06:06:36.304Z,93.70
2022-10-20T06:09:06.776Z,93.80
2022-10-20T06:11:37.103Z,93.80
2022-10-20T06:14:07.089Z,93.90
2022-10-20T06:16:34.387Z,94.00
2022-10-20T06:19:01.683Z,94.00
2022-10-20T06:21:31.645Z,94.10
2022-10-20T06:24:00.687Z,94.20
2022-10-20T06:26:30.044Z,94.20
2022-10-20T06:29:03.599Z,94.20
2022-10-20T06:31:34.461Z,94.20
2022-10-20T06:34:03.971Z,94.20
2022-10-20T06:36:30.952Z,94.20
2022-10-20T06:38:59.125Z,94.30
2022-10-20T06:41:27.467Z,94.30
2022-10-20T06:43:58.909Z,94.30
2022-10-20T06:46:31.410Z,94.20
2022-10-20T06:49:06.730Z,94.20
2022-10-20T06:51:35.289Z,94.20
2022-10-20T06:54:02.673Z,94.20
2022-10-20T06:56:31.764Z,94.20
2022-10-20T06:59:00.571Z,94.20
2022-10-20T07:01:29.928Z,94.20
2022-10-20T07:03:59.651Z,94.10
2022-10-20T07:06:29.470Z,94.20
2022-10-20T07:08:57.449Z,94.20
2022-10-20T07:11:27.837Z,94.20
2022-10-20T07:13:55.740Z,94.20
2022-10-20T07:16:25.198Z,94.20
2022-10-20T07:18:52.354Z,94.20
2022-10-20T07:21:30.759Z,94.20
2022-10-20T07:24:03.125Z,94.20
2022-10-20T07:26:32.801Z,94.20
2022-10-20T07:29:01.491Z,94.20
2022-10-20T07:31:37.162Z,94.20
2022-10-20T07:34:20.427Z,94.30
2022-10-20T07:36:51.627Z,94.30
2022-10-20T07:39:18.649Z,94.40
2022-10-20T07:41:47.719Z,94.40
2022-10-20T07:44:15.190Z,94.40
2022-10-20T07:46:42.208Z,94.40
2022-10-20T07:49:43.598Z,94.40
2022-10-20T07:51:56.421Z,94.40
2022-10-20T07:54:23.463Z,94.50
2022-10-20T07:56:50.539Z,94.40
2022-10-20T07:59:17.704Z,94.30
2022-10-20T08:01:44.857Z,94.30
2022-10-20T08:04:12.074Z,94.30
2022-10-20T08:06:39.620Z,94.40
2022-10-20T08:09:07.566Z,94.40
2022-10-20T08:11:35.331Z,94.40
2022-10-20T08:14:02.523Z,94.40
2022-10-20T08:16:33.951Z,94.20
2022-10-20T08:21:45.012Z,94.20
2022-10-20T08:24:11.954Z,94.30
2022-10-20T08:26:38.881Z,94.50
2022-10-20T08:29:06.612Z,94.20
2022-10-20T08:31:33.642Z,94.20
2022-10-20T08:34:00.874Z,94.30
2022-10-20T08:36:28.291Z,94.30
2022-10-20T08:38:56.485Z,94.30
2022-10-20T08:42:06.439Z,94.10
2022-10-20T08:44:34.599Z,94.20
2022-10-20T08:47:14.639Z,94.10
2022-10-20T08:49:41.787Z,94.10
2022-10-20T08:52:15.174Z,94.00
2022-10-20T08:54:42.267Z,93.90
2022-10-20T08:57:24.394Z,93.80
2022-10-20T08:59:53.603Z,93.80
2022-10-20T09:02:21.378Z,93.70
2022-10-20T09:04:58.826Z,93.70
2022-10-20T09:07:30.119Z,93.60
2022-10-20T09:10:21.664Z,93.50
2022-10-20T09:12:50.227Z,93.50
2022-10-20T09:15:19.897Z,93.30
2022-10-20T09:17:53.434Z,93.30
2022-10-20T09:20:28.324Z,93.20
2022-10-20T09:22:55.457Z,93.30
2022-10-20T09:25:25.330Z,93.30
2022-10-20T09:27:53.255Z,93.10
2022-10-20T09:30:22.745Z,93.10
2022-10-20T09:32:50.245Z,93.00
2022-10-20T09:35:30.497Z,93.00
2022-10-20T09:38:29.564Z,93.00
2022-10-20T09:41:17.863Z,92.80
2022-10-20T09:44:08.399Z,92.80
2022-10-20T09:46:43.468Z,92.70
2022-10-20T09:49:32.189Z,92.60
2022-10-20T09:52:01.960Z,92.40
2022-10-20T09:54:29.784Z,92.20
2022-10-20T09:57:15.012Z,91.90
2022-10-20T09:59:47.431Z,91.80
2022-10-20T10:02:20.302Z,91.70
2022-10-20T10:04:54.879Z,91.50
2022-10-20T10:07:27.787Z,91.00
2022-10-20T10:10:19.660Z,90.60
2022-10-20T10:12:55.012Z,89.90
2022-10-20T10:15:30.729Z,89.20
2022-10-20T10:17:58.396Z,88.50
2022-10-20T10:20:29.320Z,87.30
2022-10-20T10:23:21.113Z,86.60
2022-10-20T10:25:49.927Z,86.20
2022-10-20T10:28:32.303Z,86.10
2022-10-20T10:31:16.235Z,84.90
2022-10-20T10:33:43.410Z,84.10
2022-10-20T10:36:30.163Z,83.40
2022-10-20T10:38:58.709Z,82.70
2022-10-20T10:41:34.759Z,82.20
2022-10-20T10:44:15.668Z,81.50
2022-10-20T10:49:21.380Z,78.30
2022-10-20T10:51:57.215Z,78.40
2022-10-20T10:54:39.104Z,78.10
2022-10-20T10:57:12.606Z,78.00
2022-10-20T10:59:44.162Z,76.80
2022-10-20T11:02:46.097Z,77.10
2022-10-20T11:05:31.729Z,77.10
2022-10-20T11:08:04.797Z,77.20
2022-10-20T11:10:54.729Z,77.30
2022-10-20T11:13:40.847Z,77.60
2022-10-20T11:16:24.284Z,77.30
2022-10-20T11:19:04.647Z,77.30
2022-10-20T11:21:41.186Z,76.30
2022-10-20T11:24:21.635Z,75.10
2022-10-20T11:26:58.969Z,74.70
2022-10-20T11:29:34.146Z,73.40
2022-10-20T11:32:24.338Z,73.20
2022-10-20T11:35:03.684Z,72.50
2022-10-20T11:37:57.126Z,72.40
2022-10-20T11:40:35.182Z,72.60
2022-10-20T11:43:26.127Z,72.20
2022-10-20T11:45:55.277Z,72.40
2022-10-20T11:48:43.265Z,71.10
2022-10-20T11:51:31.996Z,70.90
2022-10-20T11:54:23.170Z,70.30
2022-10-20T11:57:18.363Z,70.10
2022-10-20T12:00:16.134Z,69.80
2022-10-20T12:02:43.057Z,69.60
2022-10-20T12:05:18.714Z,69.30
2022-10-20T12:08:17.378Z,68.50
2022-10-20T12:11:05.995Z,67.90
2022-10-20T12:13:57.235Z,67.50
2022-10-20T12:16:52.402Z,67.40
2022-10-20T12:19:33.403Z,67.40
2022-10-20T12:22:18.632Z,67.70
2022-10-20T12:24:54.336Z,67.50
2022-10-20T12:27:29.597Z,68.10
2022-10-20T12:30:24.093Z,68.30
2022-10-20T12:32:53.543Z,67.90
2022-10-20T12:35:20.446Z,67.70
2022-10-20T12:38:03.984Z,67.60
2022-10-20T12:40:52.332Z,67.80
2022-10-20T12:43:48.875Z,68.20
2022-10-20T12:46:23.130Z,68.50
2022-10-20T12:48:56.797Z,68.70
2022-10-20T12:51:36.062Z,68.40
2022-10-20T12:54:26.930Z,68.20
2022-10-20T12:57:00.179Z,68.60
2022-10-20T12:59:37.321Z,68.20
2022-10-20T13:02:10.423Z,68.50
2022-10-20T13:05:21.805Z,68.50
2022-10-20T13:07:48.751Z,68.00
2022-10-20T13:10:27.544Z,67.90
2022-10-20T13:13:20.314Z,67.80
2022-10-20T13:15:53.287Z,67.80
2022-10-20T13:18:32.801Z,67.90
2022-10-20T13:21:19.649Z,67.90
2022-10-20T13:24:03.302Z,67.40
2022-10-20T13:26:37.639Z,67.30
2022-10-20T13:29:18.024Z,67.40
2022-10-20T13:32:13.144Z,67.50
2022-10-20T13:34:49.527Z,67.70
2022-10-20T13:37:35.301Z,67.80
2022-10-20T13:40:02.207Z,67.80
2022-10-20T13:42:44.269Z,67.60
2022-10-20T13:45:28.830Z,67.30
2022-10-20T13:48:07.709Z,67.20
2022-10-20T13:50:40.955Z,67.20
2022-10-20T13:53:27.123Z,67.00
2022-10-20T13:55:59.818Z,66.00
2022-10-20T13:58:27.539Z,66.20
2022-10-20T14:01:07.111Z,66.40
2022-10-20T14:03:42.772Z,66.50
2022-10-20T14:06:31.828Z,66.70
2022-10-20T14:09:09.632Z,67.20
2022-10-20T14:11:36.827Z,67.40
2022-10-20T14:14:03.796Z,67.50
2022-10-20T14:16:31.836Z,67.50
2022-10-20T14:19:12.826Z,67.40
2022-10-20T14:21:51.081Z,67.70
2022-10-20T14:24:26.403Z,67.80
2022-10-20T14:26:54.741Z,67.20
2022-10-20T14:29:24.066Z,67.00
2022-10-20T14:31:51.667Z,66.70
2022-10-20T14:34:21.291Z,66.70
2022-10-20T14:36:50.259Z,66.30
2022-10-20T14:39:40.516Z,65.90
2022-10-20T14:42:25.722Z,65.70
2022-10-20T14:44:56.910Z,65.60
2022-10-20T14:47:25.056Z,65.40
2022-10-20T14:49:54.615Z,65.20
2022-10-20T14:52:27.994Z,65.30
2022-10-20T14:54:54.942Z,65.50
2022-10-20T14:57:24.892Z,65.80
2022-10-20T15:00:03.772Z,66.00
2022-10-20T15:02:30.912Z,66.10
2022-10-20T15:05:20.765Z,66.30
2022-10-20T15:07:48.047Z,66.60
2022-10-20T15:10:17.932Z,66.80
2022-10-20T15:12:49.067Z,66.80
2022-10-20T15:15:36.153Z,67.00
2022-10-20T15:18:21.045Z,67.50
2022-10-20T15:20:49.533Z,68.00
2022-10-20T15:23:17.998Z,68.40
2022-10-20T15:26:05.373Z,68.80
2022-10-20T15:28:35.114Z,69.80
2022-10-20T15:31:05.038Z,70.10
2022-10-20T15:33:32.429Z,70.50
2022-10-20T15:36:01.608Z,70.80
2022-10-20T15:38:28.734Z,71.30
2022-10-20T15:40:55.773Z,71.70
2022-10-20T15:43:22.781Z,71.90
2022-10-20T15:45:54.884Z,72.30
2022-10-20T15:48:25.840Z,72.60
2022-10-20T15:50:59.214Z,72.80
2022-10-20T15:53:26.215Z,73.20
2022-10-20T15:55:53.241Z,73.50
2022-10-20T15:58:20.346Z,73.80
2022-10-20T16:00:47.469Z,74.10
2022-10-20T16:03:18.897Z,74.20
2022-10-20T16:05:46.798Z,74.30
2022-10-20T16:10:43.672Z,74.50
2022-10-20T16:13:11.998Z,74.70
2022-10-20T16:15:39.052Z,75.00
2022-10-20T16:18:09.578Z,75.10
2022-10-20T16:20:37.288Z,75.20
2022-10-20T16:23:04.325Z,75.30
2022-10-20T16:25:31.289Z,75.30
2022-10-20T16:27:58.226Z,75.70
2022-10-20T16:30:25.207Z,75.80
2022-10-20T16:32:52.224Z,76.00
2022-10-20T16:35:19.169Z,76.30
2022-10-20T16:37:46.187Z,76.50
2022-10-20T16:40:13.206Z,76.70
2022-10-20T16:42:40.342Z,76.80
2022-10-20T16:45:07.869Z,76.90
2022-10-20T16:47:35.302Z,77.00
2022-10-20T16:50:02.868Z,77.10
2022-10-20T16:52:29.877Z,77.20
2022-10-20T16:54:56.857Z,77.30
2022-10-20T16:57:23.892Z,77.40
2022-10-20T16:59:50.878Z,77.30
2022-10-20T17:02:19.053Z,77.40
2022-10-20T17:04:49.852Z,77.50
2022-10-20T17:07:17.408Z,77.70
2022-10-20T17:09:44.406Z,77.80
2022-10-20T17:12:11.384Z,77.90
2022-10-20T17:14:40.625Z,78.10
2022-10-20T17:17:07.621Z,78.20
2022-10-20T17:19:35.471Z,78.30
2022-10-20T17:22:03.031Z,78.40
2022-10-20T17:24:30.092Z,78.40
2022-10-20T17:26:57.084Z,78.60
2022-10-20T17:29:26.213Z,78.70
2022-10-20T17:31:53.572Z,78.90
2022-10-20T17:34:20.664Z,79.10
2022-10-20T17:36:47.648Z,79.30
2022-10-20T17:39:18.139Z,79.40
2022-10-20T17:41:46.485Z,79.60
2022-10-20T17:44:13.586Z,79.90
2022-10-20T17:46:42.640Z,80.10
2022-10-20T17:49:09.700Z,80.20
2022-10-20T17:51:36.715Z,80.30
2022-10-20T17:54:04.954Z,80.30
2022-10-20T17:56:36.038Z,80.40
2022-10-20T17:59:04.581Z,80.30
2022-10-20T18:01:40.562Z,80.40
2022-10-20T18:04:14.959Z,80.50
2022-10-20T18:06:43.507Z,80.50
2022-10-20T18:09:13.616Z,80.50
2022-10-20T18:11:46.340Z,80.60
2022-10-20T18:14:13.320Z,80.70
2022-10-20T18:16:40.914Z,80.80
2022-10-20T18:19:10.145Z,80.90
2022-10-20T18:21:37.499Z,81.00
2022-10-20T18:24:06.764Z,81.10
2022-10-20T18:26:36.750Z,81.20
2022-10-20T18:29:06.507Z,81.40
2022-10-20T18:31:35.212Z,81.60
2022-10-20T18:34:06.963Z,81.80
2022-10-20T18:36:37.904Z,82.00
2022-10-20T18:39:08.089Z,82.30
2022-10-20T18:41:38.336Z,82.50
2022-10-20T18:44:09.989Z,82.70
2022-10-20T18:46:37.101Z,83.00
2022-10-20T18:49:07.089Z,83.10
2022-10-20T18:51:34.696Z,83.30
2022-10-20T18:54:03.058Z,83.50
2022-10-20T18:56:31.107Z,83.70
2022-10-20T18:59:01.054Z,83.90
2022-10-20T19:01:33.567Z,84.20
2022-10-20T19:04:01.064Z,84.40
2022-10-20T19:06:30.672Z,84.60
2022-10-20T19:09:02.743Z,84.90
2022-10-20T19:11:31.789Z,85.10
2022-10-20T19:13:59.509Z,85.30
2022-10-20T19:16:31.634Z,85.30
2022-10-20T19:19:00.865Z,85.60
2022-10-20T19:21:28.563Z,85.80
2022-10-20T19:24:19.743Z,85.70
2022-10-20T19:27:02.007Z,86.10
2022-10-20T19:29:35.532Z,86.00
2022-10-20T19:32:04.428Z,85.90
2022-10-20T19:34:34.832Z,86.00
2022-10-20T19:37:03.031Z,85.80
2022-10-20T19:39:37.091Z,85.80
2022-10-20T19:42:06.420Z,85.90
2022-10-20T19:44:33.775Z,86.20
2022-10-20T19:47:00.804Z,86.30
2022-10-20T19:49:28.105Z,86.80
2022-10-20T19:51:55.224Z,87.20
2022-10-20T19:54:22.308Z,87.30
2022-10-20T19:56:49.338Z,87.50
2022-10-20T19:59:16.553Z,87.60
2022-10-20T20:01:43.566Z,87.60
2022-10-20T20:04:10.919Z,87.60
2022-10-20T20:06:38.209Z,87.50
2022-10-20T20:09:08.204Z,87.70
2022-10-20T20:11:37.459Z,88.00
2022-10-20T20:14:17.134Z,88.20
2022-10-20T20:16:48.140Z,88.70
2022-10-20T20:19:16.807Z,88.80
2022-10-20T20:21:44.486Z,89.10
2022-10-20T20:24:12.819Z,89.30
2022-10-20T20:26:40.044Z,89.40
2022-10-20T20:29:07.059Z,89.40
2022-10-20T20:31:34.296Z,89.20
2022-10-20T20:34:01.609Z,89.10
2022-10-20T20:36:29.205Z,89.00
2022-10-20T20:38:58.103Z,89.10
2022-10-20T20:41:27.599Z,89.80
2022-10-20T20:43:55.101Z,89.30
2022-10-20T20:46:23.937Z,89.50
2022-10-20T20:48:51.405Z,90.00
2022-10-20T20:51:18.393Z,90.10
2022-10-20T20:53:45.428Z,90.20
2022-10-20T20:56:15.167Z,90.30
2022-10-20T20:58:45.313Z,90.40
2022-10-20T21:01:17.354Z,90.40
2022-10-20T21:03:44.773Z,90.50
2022-10-20T21:06:14.799Z,90.60
2022-10-20T21:08:44.275Z,90.70
2022-10-20T21:11:17.075Z,90.90
2022-10-20T21:13:45.276Z,91.20
2022-10-20T21:16:15.894Z,91.20
2022-10-20T21:18:46.156Z,91.20
2022-10-20T21:21:17.667Z,91.20
2022-10-20T21:23:44.702Z,91.30
2022-10-20T21:26:13.802Z,91.30
2022-10-20T21:28:42.042Z,91.20
2022-10-20T21:31:14.457Z,91.20
2022-10-20T21:33:42.731Z,91.30
2022-10-20T21:36:12.214Z,91.20
2022-10-20T21:38:40.492Z,91.20
2022-10-20T21:41:11.802Z,91.40
2022-10-20T21:43:40.509Z,91.50
2022-10-20T21:46:19.980Z,91.50
2022-10-20T21:48:48.992Z,91.40
2022-10-20T21:51:17.387Z,91.30
2022-10-20T21:53:44.596Z,91.30
2022-10-20T21:56:11.892Z,91.40
2022-10-20T21:58:39.555Z,91.50
2022-10-20T22:01:15.107Z,91.50
2022-10-20T22:03:43.563Z,91.60
2022-10-20T22:06:12.897Z,91.70
2022-10-20T22:08:43.761Z,91.90
2022-10-20T22:11:17.570Z,92.20
2022-10-20T22:13:44.924Z,92.50
2022-10-20T22:16:17.534Z,92.70
2022-10-20T22:18:45.027Z,92.80
2022-10-20T22:21:17.471Z,92.90
2022-10-20T22:23:45.504Z,93.20
2022-10-20T22:26:12.627Z,93.00
2022-10-20T22:28:40.251Z,93.10
2022-10-20T22:31:07.838Z,93.00
2022-10-20T22:33:35.375Z,92.90
2022-10-20T22:36:04.083Z,92.70
2022-10-20T22:38:31.172Z,92.60
2022-10-20T22:41:01.557Z,92.50
2022-10-20T22:43:30.234Z,92.60
2022-10-20T22:45:57.491Z,92.50
2022-10-20T22:48:25.192Z,92.50
2022-10-20T22:50:52.330Z,92.60
2022-10-20T22:53:19.699Z,92.50
2022-10-20T22:55:47.280Z,92.60
2022-10-20T22:58:14.327Z,92.70
2022-10-20T23:00:43.781Z,92.70
2022-10-20T23:03:10.889Z,92.50
2022-10-20T23:05:37.885Z,92.30
2022-10-20T23:08:05.758Z,92.20
2022-10-20T23:10:33.207Z,92.20
2022-10-20T23:13:00.241Z,92.20
2022-10-20T23:15:27.508Z,92.20
2022-10-20T23:17:54.482Z,92.30
2022-10-20T23:20:21.474Z,92.30
2022-10-20T23:22:48.539Z,92.30
2022-10-20T23:25:15.604Z,92.30
2022-10-20T23:27:42.547Z,92.30
2022-10-20T23:30:09.990Z,91.90
2022-10-20T23:32:37.132Z,91.80
2022-10-20T23:35:04.417Z,92.00
2022-10-20T23:37:32.114Z,92.20
2022-10-20T23:39:59.096Z,92.30
2022-10-20T23:42:26.084Z,92.40
2022-10-20T23:44:53.049Z,92.50
2022-10-20T23:47:20.029Z,92.40
2022-10-20T23:49:46.989Z,92.40
2022-10-20T23:52:13.967Z,92.30
2022-10-20T23:54:40.969Z,92.10
2022-10-20T23:57:07.892Z,92.20
2022-10-20T23:59:34.858Z,92.40
